Mc Intire, Iowa
Current Conditions -  °F | °C
As of 5:56 AM on Saturday 27 Dec 2014 (Local Time) from KAUM Reporting Station
Light Snow Light Snow  
Wind Chill: 15°   Ceiling: 1200
Heat Index: 27°   Visibility: 10mi
Dew Point: 25°   Wind: 14mph
Humidity: 93%   Direction: 320°NW
Pressure: 29.92"   Gusts: NA
Location:  43.4645°N, 92.6131°W
Report Text: KAUM 271156Z AUTO 32012KT 10SM -SN BKN012 OVC022 M03/M04 A2992 RMK AO2
Loading
Personal Weather Stations






























Interactive Weather Map New forecast layout! Learn more

10-Day Weather Forecast

Advertisements
Track Severe Weather on mobile